Time;durP1;ratioP1;P1;durP2;ratioP2;P2;SDS_P1;SDS_P2;PMS_P1;PMS_P2;Temp;Humidity;BMP_temperature;BMP_pressure;BME280_temperature;BME280_humidity;BME280_pressure;Samples;Min_cycle;Max_cycle;Signal;HPM_P1;HPM_P2
2023/03/28 00:00:48;;;;;;;1.10;0.63;;;21.40;47.40;;;;;;5038618;28;20029;-64
2023/03/28 00:03:17;;;;;;;1.15;0.70;;;21.40;47.40;;;;;;5038672;28;20035;-63
2023/03/28 00:05:54;;;;;;;0.95;0.80;;;21.40;47.40;;;;;;5040363;28;20117;-63
2023/03/28 00:08:20;;;;;;;1.45;0.77;;;21.40;47.40;;;;;;5044094;28;20033;-62
2023/03/28 00:10:46;;;;;;;1.10;0.77;;;21.40;48.00;;;;;;5039159;28;20381;-62
2023/03/28 00:13:18;;;;;;;0.60;0.60;;;21.40;47.40;;;;;;5038623;28;20033;-61
2023/03/28 00:15:44;;;;;;;1.30;0.80;;;21.40;47.40;;;;;;5040301;28;20021;-62
2023/03/28 00:18:13;;;;;;;1.20;0.75;;;21.40;47.40;;;;;;5040902;28;20040;-63
2023/03/28 00:20:42;;;;;;;1.58;0.80;;;21.30;47.40;;;;;;5040142;28;20405;-62
2023/03/28 00:23:10;;;;;;;1.50;0.73;;;21.30;47.40;;;;;;5038987;28;20065;-61
2023/03/28 00:25:39;;;;;;;1.10;0.75;;;21.30;47.40;;;;;;5039960;28;20429;-62
2023/03/28 00:28:05;;;;;;;1.45;0.88;;;21.40;47.40;;;;;;5037416;28;20033;-63
2023/03/28 00:30:30;;;;;;;0.75;0.60;;;21.40;47.50;;;;;;5039821;28;20025;-62
2023/03/28 00:32:56;;;;;;;1.38;0.60;;;21.30;47.40;;;;;;5040813;28;20396;-62
2023/03/28 00:35:22;;;;;;;0.80;0.60;;;21.30;47.50;;;;;;5039936;28;20030;-61
2023/03/28 00:37:49;;;;;;;1.45;0.80;;;21.30;47.40;;;;;;5036499;28;20082;-62
2023/03/28 00:40:15;;;;;;;1.23;0.70;;;21.30;47.50;;;;;;5039101;28;20025;-62
2023/03/28 00:42:42;;;;;;;1.10;0.73;;;21.30;47.40;;;;;;5039230;28;20361;-61
2023/03/28 00:45:11;;;;;;;0.80;0.70;;;21.30;47.40;;;;;;5037187;28;20025;-62
2023/03/28 00:47:39;;;;;;;1.08;0.73;;;21.30;47.40;;;;;;5037119;28;20072;-61
2023/03/28 00:50:26;;;;;;;1.10;0.70;;;21.30;47.40;;;;;;5039388;28;20069;-62
2023/03/28 00:52:54;;;;;;;1.30;0.60;;;21.30;47.50;;;;;;5036237;28;20033;-62
2023/03/28 00:55:35;;;;;;;1.97;0.70;;;21.30;47.40;;;;;;5037760;28;20397;-62
2023/03/28 00:58:05;;;;;;;1.23;0.80;;;21.20;47.40;;;;;;5037847;28;20550;-62
2023/03/28 01:00:33;;;;;;;1.15;0.70;;;21.30;47.50;;;;;;5037443;28;20151;-63
2023/03/28 01:03:01;;;;;;;1.20;0.80;;;21.30;47.50;;;;;;5035217;28;21013;-61
2023/03/28 01:05:31;;;;;;;1.00;0.70;;;21.30;47.50;;;;;;5037148;28;20037;-61
2023/03/28 01:08:04;;;;;;;1.00;0.70;;;21.20;47.40;;;;;;5039488;28;20037;-61
2023/03/28 01:10:32;;;;;;;1.63;0.80;;;21.30;47.50;;;;;;5037476;28;20087;-62
2023/03/28 01:12:59;;;;;;;0.65;0.60;;;21.20;47.50;;;;;;5036875;28;20032;-62
2023/03/28 01:15:25;;;;;;;0.77;0.60;;;21.20;47.40;;;;;;5040977;28;20361;-62
2023/03/28 01:17:52;;;;;;;1.00;0.70;;;21.20;47.50;;;;;;5039533;28;20025;-62
2023/03/28 01:20:28;;;;;;;1.10;0.70;;;21.20;47.50;;;;;;5037713;28;20048;-62
2023/03/28 01:23:18;;;;;;;0.90;0.60;;;21.20;47.50;;;;;;5036499;28;20032;-62
2023/03/28 01:26:18;;;;;;;0.75;0.60;;;21.20;47.50;;;;;;5042043;28;20105;-63
2023/03/28 01:28:59;;;;;;;1.02;0.60;;;21.20;47.50;;;;;;5038055;28;20034;-63
2023/03/28 01:31:33;;;;;;;0.68;0.68;;;21.20;47.50;;;;;;5038560;28;20025;-63
2023/03/28 01:34:24;;;;;;;1.20;0.68;;;21.20;47.50;;;;;;5041713;28;20121;-63
2023/03/28 01:37:14;;;;;;;1.20;0.60;;;21.20;47.50;;;;;;5039919;28;20030;-63
2023/03/28 01:39:55;;;;;;;0.80;0.60;;;21.20;47.50;;;;;;5040967;28;20488;-62
2023/03/28 01:42:35;;;;;;;1.13;0.70;;;21.10;47.40;;;;;;5040598;28;20037;-62
2023/03/28 01:45:22;;;;;;;0.80;0.60;;;21.10;47.40;;;;;;5037133;28;20463;-62
2023/03/28 01:47:54;;;;;;;1.30;0.65;;;21.10;47.40;;;;;;5040046;28;20032;-62
2023/03/28 01:50:53;;;;;;;1.17;0.65;;;21.10;47.40;;;;;;5040537;28;20465;-63
2023/03/28 01:53:41;;;;;;;0.82;0.68;;;21.10;47.40;;;;;;5038357;28;20476;-61
2023/03/28 01:56:21;;;;;;;0.90;0.65;;;21.10;47.50;;;;;;5046763;28;20126;-61
2023/03/28 01:58:55;;;;;;;1.15;0.60;;;21.10;47.50;;;;;;5045007;28;20342;-62
2023/03/28 02:01:50;;;;;;;1.15;0.70;;;21.10;47.50;;;;;;5042423;28;20094;-62
2023/03/28 02:04:19;;;;;;;0.75;0.55;;;21.10;47.50;;;;;;5035113;28;20037;-62
2023/03/28 02:06:47;;;;;;;0.73;0.50;;;21.10;47.50;;;;;;5040044;28;20030;-62
2023/03/28 02:09:15;;;;;;;1.20;0.70;;;21.10;47.50;;;;;;5040064;28;20055;-62
2023/03/28 02:11:42;;;;;;;1.10;0.50;;;21.10;47.50;;;;;;5038768;28;20025;-62
2023/03/28 02:14:13;;;;;;;0.90;0.68;;;21.10;47.60;;;;;;5043517;28;20014;-62
2023/03/28 02:16:40;;;;;;;0.75;0.60;;;21.10;47.60;;;;;;5044226;28;20064;-61
2023/03/28 02:19:08;;;;;;;0.75;0.60;;;21.00;48.10;;;;;;5039084;28;20468;-61
2023/03/28 02:21:42;;;;;;;0.70;0.55;;;21.00;47.50;;;;;;5041630;28;20145;-62
2023/03/28 02:24:11;;;;;;;1.02;0.65;;;21.00;47.60;;;;;;5036234;28;20426;-62
2023/03/28 02:26:36;;;;;;;0.73;0.52;;;21.00;47.60;;;;;;5044074;28;20117;-61
2023/03/28 02:29:03;;;;;;;0.82;0.68;;;21.00;47.50;;;;;;5040637;28;20143;-62
2023/03/28 02:31:29;;;;;;;1.10;0.60;;;21.00;47.60;;;;;;5041067;28;20104;-61
2023/03/28 02:33:55;;;;;;;0.55;0.50;;;21.00;48.10;;;;;;5040929;28;20104;-62
2023/03/28 02:36:42;;;;;;;0.90;0.57;;;21.00;47.60;;;;;;5042011;28;20044;-62
2023/03/28 02:39:28;;;;;;;0.63;0.50;;;21.00;47.60;;;;;;5039451;28;20043;-63
2023/03/28 02:42:32;;;;;;;1.05;0.60;;;21.00;47.60;;;;;;5043499;28;20542;-62
2023/03/28 02:45:25;;;;;;;0.93;0.70;;;21.00;47.60;;;;;;5020914;28;20052;-63
2023/03/28 02:47:59;;;;;;;0.63;0.52;;;21.00;47.60;;;;;;5041372;28;20047;-62
2023/03/28 02:50:34;;;;;;;0.68;0.50;;;21.00;47.60;;;;;;5044529;28;20053;-62
2023/03/28 02:53:14;;;;;;;1.73;0.60;;;21.00;47.70;;;;;;5039539;28;20112;-62
2023/03/28 02:56:05;;;;;;;1.08;0.70;;;21.00;47.60;;;;;;5038994;28;20022;-62
2023/03/28 02:58:36;;;;;;;1.20;0.70;;;21.00;47.60;;;;;;5036318;28;20060;-62
2023/03/28 03:01:05;;;;;;;0.75;0.63;;;21.00;47.60;;;;;;5040869;28;20078;-62
2023/03/28 03:03:32;;;;;;;0.57;0.50;;;21.00;47.70;;;;;;5037378;28;20037;-62
2023/03/28 03:05:59;;;;;;;0.70;0.57;;;20.90;47.70;;;;;;5040689;28;20032;-61
2023/03/28 03:08:26;;;;;;;0.73;0.50;;;20.90;47.70;;;;;;5042874;28;20045;-61
2023/03/28 03:10:52;;;;;;;0.73;0.50;;;20.90;47.70;;;;;;5037988;28;20021;-62
2023/03/28 03:13:18;;;;;;;0.68;0.57;;;20.90;47.70;;;;;;5039922;28;20330;-62
2023/03/28 03:15:45;;;;;;;0.70;0.60;;;20.90;47.70;;;;;;5037207;28;20021;-62
2023/03/28 03:18:11;;;;;;;0.63;0.52;;;20.90;47.70;;;;;;5040792;28;20116;-57
2023/03/28 03:20:40;;;;;;;0.50;0.50;;;20.90;47.70;;;;;;5040174;28;20447;-61
2023/03/28 03:23:06;;;;;;;0.77;0.45;;;20.90;47.70;;;;;;5037352;28;20033;-61
2023/03/28 03:25:33;;;;;;;0.55;0.50;;;20.90;47.70;;;;;;5042586;28;20033;-62
2023/03/28 03:27:59;;;;;;;0.60;0.60;;;20.90;47.70;;;;;;5040070;28;20381;-62
2023/03/28 03:30:25;;;;;;;0.60;0.50;;;20.90;47.70;;;;;;5038344;28;20397;-61
2023/03/28 03:32:51;;;;;;;0.82;0.60;;;20.90;47.70;;;;;;5038034;28;20182;-61
2023/03/28 03:35:16;;;;;;;0.70;0.70;;;20.90;47.70;;;;;;5040000;28;20037;-61
2023/03/28 03:37:42;;;;;;;0.77;0.52;;;20.90;47.70;;;;;;5040895;28;20032;-62
2023/03/28 03:40:08;;;;;;;0.60;0.60;;;20.90;47.70;;;;;;5040329;28;20025;-62
2023/03/28 03:42:35;;;;;;;0.80;0.60;;;20.80;47.70;;;;;;5035656;28;20035;-62
2023/03/28 03:45:00;;;;;;;0.55;0.50;;;20.90;47.80;;;;;;5038013;28;20022;-62
2023/03/28 03:47:26;;;;;;;0.82;0.60;;;20.90;47.70;;;;;;5040833;28;20084;-62
2023/03/28 03:49:51;;;;;;;1.10;0.60;;;20.90;47.80;;;;;;5039186;28;20060;-62
2023/03/28 03:52:17;;;;;;;1.20;0.70;;;20.90;47.80;;;;;;5037947;28;20482;-62
2023/03/28 03:54:43;;;;;;;0.98;0.65;;;20.90;47.80;;;;;;5038999;28;20025;-62
2023/03/28 03:57:09;;;;;;;1.27;0.70;;;20.80;47.70;;;;;;5038933;28;20029;-62
2023/03/28 03:59:35;;;;;;;0.63;0.50;;;20.80;47.80;;;;;;5035703;28;20024;-62
2023/03/28 04:02:00;;;;;;;0.60;0.45;;;20.80;47.80;;;;;;5040317;28;20029;-61
2023/03/28 04:04:26;;;;;;;0.60;0.50;;;20.80;47.80;;;;;;5040221;28;20384;-62
2023/03/28 04:06:52;;;;;;;0.57;0.50;;;20.80;47.80;;;;;;5040477;28;20032;-61
2023/03/28 04:09:21;;;;;;;0.65;0.50;;;20.80;47.80;;;;;;5036104;28;20478;-61
2023/03/28 04:11:47;;;;;;;0.68;0.52;;;20.80;47.80;;;;;;5037436;28;20407;-61
2023/03/28 04:14:12;;;;;;;1.33;0.50;;;20.80;48.30;;;;;;5040424;28;20048;-61
2023/03/28 04:16:40;;;;;;;0.80;0.60;;;20.80;47.80;;;;;;5041166;28;20056;-61
2023/03/28 04:19:05;;;;;;;0.68;0.60;;;20.80;47.80;;;;;;5036212;28;20116;-61
2023/03/28 04:21:34;;;;;;;0.82;0.60;;;20.80;47.80;;;;;;5040137;28;20112;-61
2023/03/28 04:24:00;;;;;;;0.98;0.50;;;20.80;47.80;;;;;;5038879;28;20373;-61
2023/03/28 04:26:34;;;;;;;0.70;0.60;;;20.80;47.90;;;;;;5036943;28;20029;-62
2023/03/28 04:29:02;;;;;;;0.82;0.60;;;20.80;47.90;;;;;;5040098;28;20484;-61
2023/03/28 04:31:34;;;;;;;;;;;20.80;47.90;;;;;;5038740;28;20546;-62
2023/03/28 04:34:02;;;;;;;0.90;0.55;;;20.80;47.90;;;;;;5038625;28;20281;-62
2023/03/28 04:36:28;;;;;;;0.50;0.50;;;20.80;47.90;;;;;;5037622;28;20542;-62
2023/03/28 04:38:57;;;;;;;1.00;0.70;;;20.80;47.90;;;;;;5036869;28;20032;-62
2023/03/28 04:41:24;;;;;;;0.57;0.52;;;20.80;47.90;;;;;;5039790;28;20030;-61
2023/03/28 04:43:50;;;;;;;0.50;0.50;;;20.80;47.90;;;;;;5037220;28;20392;-61
2023/03/28 04:46:16;;;;;;;0.60;0.60;;;20.80;47.90;;;;;;5035642;28;20578;-61
2023/03/28 04:48:42;;;;;;;0.82;0.60;;;20.80;47.90;;;;;;5041102;28;20021;-61
2023/03/28 04:51:08;;;;;;;0.60;0.50;;;20.80;48.00;;;;;;5042788;28;20430;-62
2023/03/28 04:53:35;;;;;;;0.40;0.40;;;20.80;48.00;;;;;;5038718;28;20041;-61
2023/03/28 04:56:01;;;;;;;0.60;0.60;;;20.80;48.00;;;;;;5039522;28;20021;-61
2023/03/28 04:58:26;;;;;;;0.55;0.52;;;20.80;48.00;;;;;;5039330;28;20040;-61
2023/03/28 05:00:52;;;;;;;0.50;0.50;;;20.80;48.60;;;;;;5040701;28;20030;-61
2023/03/28 05:03:21;;;;;;;1.17;0.60;;;20.80;48.10;;;;;;5038596;28;20033;-61
2023/03/28 05:05:50;;;;;;;1.07;0.70;;;20.80;48.20;;;;;;5040618;28;20048;-62
2023/03/28 05:08:16;;;;;;;1.05;0.60;;;20.70;48.30;;;;;;5040106;28;20283;-62
2023/03/28 05:10:44;;;;;;;1.42;0.77;;;20.70;48.40;;;;;;5042144;28;20488;-61
2023/03/28 05:13:10;;;;;;;2.83;0.80;;;20.70;48.50;;;;;;5037859;28;20049;-62
2023/03/28 05:15:36;;;;;;;1.77;0.75;;;20.70;48.50;;;;;;5041629;28;20033;-63
2023/03/28 05:18:02;;;;;;;1.35;0.88;;;20.70;48.60;;;;;;5035861;28;20357;-62
2023/03/28 05:20:28;;;;;;;1.52;0.80;;;20.70;48.70;;;;;;5038797;28;20049;-62
2023/03/28 05:22:54;;;;;;;2.17;1.00;;;20.70;48.70;;;;;;5041340;28;20496;-61
2023/03/28 05:25:20;;;;;;;1.63;1.00;;;20.70;48.80;;;;;;5042205;28;20071;-61
2023/03/28 05:27:46;;;;;;;2.00;1.10;;;20.70;48.80;;;;;;5043229;28;20112;-61
2023/03/28 05:30:12;;;;;;;1.88;1.00;;;20.70;48.80;;;;;;5037756;28;20040;-61
2023/03/28 05:32:38;;;;;;;1.50;1.27;;;20.70;48.90;;;;;;5042387;28;20027;-61
2023/03/28 05:35:06;;;;;;;1.75;1.20;;;20.70;48.90;;;;;;5042496;28;20151;-62
2023/03/28 05:37:32;;;;;;;2.50;1.30;;;20.70;48.90;;;;;;5042365;28;20117;-62
2023/03/28 05:39:58;;;;;;;2.60;1.10;;;20.70;48.90;;;;;;5041465;28;20040;-61
2023/03/28 05:42:29;;;;;;;1.25;0.90;;;20.70;49.50;;;;;;5043798;28;20029;-61
2023/03/28 05:44:54;;;;;;;1.70;1.00;;;20.80;49.70;;;;;;5047011;28;20025;-61
2023/03/28 05:47:20;;;;;;;1.30;1.00;;;20.90;50.00;;;;;;5045448;28;20367;-61
2023/03/28 05:49:45;;;;;;;1.98;1.00;;;21.00;49.60;;;;;;5040249;28;20061;-62
2023/03/28 05:52:11;;;;;;;1.10;0.90;;;21.00;49.40;;;;;;5042881;28;20023;-62
2023/03/28 05:54:36;;;;;;;1.38;0.90;;;21.00;49.40;;;;;;5043002;28;20502;-62
2023/03/28 05:57:02;;;;;;;1.13;0.93;;;21.00;49.40;;;;;;5042488;28;20390;-62
2023/03/28 05:59:28;;;;;;;1.67;1.00;;;21.00;49.40;;;;;;5038177;28;20037;-62
2023/03/28 06:01:54;;;;;;;1.55;1.00;;;21.10;49.40;;;;;;5039938;28;20033;-62
2023/03/28 06:04:21;;;;;;;1.15;0.80;;;21.10;49.40;;;;;;5041008;28;20071;-62
2023/03/28 06:06:47;;;;;;;1.88;1.10;;;21.10;49.40;;;;;;5039791;28;20055;-62
2023/03/28 06:09:14;;;;;;;1.67;1.10;;;21.20;50.20;;;;;;5038591;28;20037;-62
2023/03/28 06:11:40;;;;;;;1.23;0.90;;;21.30;50.30;;;;;;5041306;28;20148;-62
2023/03/28 06:14:07;;;;;;;1.63;1.00;;;21.40;49.90;;;;;;5041770;28;20030;-63
2023/03/28 06:16:32;;;;;;;1.05;0.90;;;21.40;49.60;;;;;;5041532;28;20027;-63
2023/03/28 06:18:58;;;;;;;1.40;0.98;;;21.50;49.70;;;;;;5043011;28;20104;-62
2023/03/28 06:21:24;;;;;;;1.10;0.80;;;21.50;49.70;;;;;;5043564;28;20035;-62
2023/03/28 06:23:50;;;;;;;1.20;0.90;;;21.50;49.80;;;;;;5040194;28;20035;-63
2023/03/28 06:26:16;;;;;;;1.10;0.80;;;21.50;49.70;;;;;;5040897;28;20448;-63
2023/03/28 06:28:42;;;;;;;1.27;0.90;;;21.50;49.70;;;;;;5039108;28;20052;-63
2023/03/28 06:31:10;;;;;;;0.80;0.60;;;21.60;49.90;;;;;;5039057;28;20088;-63
2023/03/28 06:33:39;;;;;;;0.82;0.75;;;21.60;49.70;;;;;;5039277;28;20037;-63
2023/03/28 06:36:06;;;;;;;0.80;0.80;;;21.60;50.40;;;;;;5040343;28;20049;-63
2023/03/28 06:38:33;;;;;;;1.20;0.80;;;21.90;50.40;;;;;;5041763;28;20427;-63
2023/03/28 06:40:59;;;;;;;1.20;0.70;;;22.20;50.20;;;;;;5042893;28;20487;-62
2023/03/28 06:43:24;;;;;;;1.17;0.75;;;22.40;49.80;;;;;;5040664;28;20495;-62
2023/03/28 06:45:51;;;;;;;0.90;0.60;;;22.60;49.50;;;;;;5041025;28;20032;-62
2023/03/28 06:48:16;;;;;;;1.10;0.70;;;22.60;49.50;;;;;;5041213;28;20039;-63
2023/03/28 06:50:48;;;;;;;1.73;0.75;;;22.60;49.50;;;;;;5040847;28;20025;-63
2023/03/28 06:53:15;;;;;;;0.95;0.60;;;22.50;49.40;;;;;;5041899;28;20025;-63
2023/03/28 06:55:41;;;;;;;0.98;0.70;;;22.50;49.70;;;;;;5038449;28;20029;-63
2023/03/28 06:58:07;;;;;;;1.25;0.63;;;22.50;50.20;;;;;;5038086;28;20079;-62
2023/03/28 07:00:33;;;;;;;1.15;0.73;;;22.50;50.20;;;;;;5039904;28;20029;-63
2023/03/28 07:02:58;;;;;;;0.60;0.60;;;22.50;50.20;;;;;;5041030;28;20021;-62
2023/03/28 07:05:24;;;;;;;1.90;0.68;;;22.60;50.10;;;;;;5042258;28;20470;-63
2023/03/28 07:07:49;;;;;;;0.52;0.47;;;22.60;50.50;;;;;;5042409;28;20065;-62
2023/03/28 07:10:15;;;;;;;0.95;0.65;;;22.60;51.10;;;;;;5042371;28;20037;-62
2023/03/28 07:12:41;;;;;;;2.60;0.70;;;22.60;50.50;;;;;;5040060;28;20567;-63
2023/03/28 07:15:07;;;;;;;1.02;0.60;;;22.70;50.80;;;;;;5041895;28;20017;-63
2023/03/28 07:17:33;;;;;;;0.73;0.50;;;22.70;50.90;;;;;;5037905;28;20097;-63
2023/03/28 07:20:00;;;;;;;0.60;0.60;;;22.70;50.80;;;;;;5042827;28;20446;-62
2023/03/28 07:22:26;;;;;;;0.75;0.57;;;22.70;50.80;;;;;;5041274;28;20122;-63
2023/03/28 07:24:52;;;;;;;1.02;0.60;;;22.80;51.50;;;;;;5038464;28;20065;-63
2023/03/28 07:27:18;;;;;;;1.08;0.60;;;22.90;51.10;;;;;;5040452;28;20453;-63
2023/03/28 07:29:43;;;;;;;0.55;0.50;;;22.90;51.10;;;;;;5040652;28;20029;-63
2023/03/28 07:32:10;;;;;;;1.30;0.50;;;22.90;51.10;;;;;;5036711;28;20397;-63
2023/03/28 07:34:35;;;;;;;1.23;0.60;;;22.90;51.10;;;;;;5040969;28;20441;-64
2023/03/28 07:37:01;;;;;;;0.52;0.52;;;22.90;51.20;;;;;;5043886;28;20026;-63
2023/03/28 07:39:27;;;;;;;0.60;0.50;;;23.00;51.20;;;;;;5038208;28;20028;-63
2023/03/28 07:41:53;;;;;;;1.23;0.50;;;23.00;51.20;;;;;;5039232;28;20024;-63
2023/03/28 07:44:18;;;;;;;0.85;0.52;;;23.00;51.30;;;;;;5040340;28;20393;-63
2023/03/28 07:46:45;;;;;;;1.00;0.60;;;23.10;51.30;;;;;;5036203;28;20025;-63
2023/03/28 07:49:11;;;;;;;1.05;0.60;;;23.10;51.40;;;;;;5039947;28;20025;-64
2023/03/28 07:51:37;;;;;;;0.68;0.45;;;23.20;51.40;;;;;;5040872;28;20017;-65
2023/03/28 07:54:03;;;;;;;1.30;0.90;;;23.20;51.30;;;;;;5038539;28;20017;-64
2023/03/28 07:56:29;;;;;;;1.48;1.00;;;23.20;48.50;;;;;;5039758;28;20056;-64
2023/03/28 07:58:55;;;;;;;1.30;1.00;;;23.20;47.50;;;;;;5037751;28;20037;-64
2023/03/28 08:01:21;;;;;;;2.13;1.10;;;23.20;47.20;;;;;;5040172;28;20529;-64
2023/03/28 08:03:47;;;;;;;1.88;1.30;;;23.20;46.70;;;;;;5036088;28;20025;-65
2023/03/28 08:06:14;;;;;;;1.77;1.33;;;23.20;46.60;;;;;;5038107;28;20450;-64
2023/03/28 08:08:40;;;;;;;1.80;1.30;;;23.20;46.50;;;;;;5039830;28;20025;-65
2023/03/28 08:11:06;;;;;;;1.70;1.15;;;23.20;46.30;;;;;;5035337;28;20052;-64
2023/03/28 08:13:32;;;;;;;1.40;0.98;;;23.20;46.30;;;;;;5036174;28;20060;-64
2023/03/28 08:15:57;;;;;;;1.40;1.10;;;23.20;46.30;;;;;;5040735;28;20017;-64
2023/03/28 08:18:24;;;;;;;2.20;1.20;;;23.20;46.20;;;;;;5036729;28;20049;-64
2023/03/28 08:20:57;;;;;;;1.90;1.30;;;23.20;46.20;;;;;;5040149;28;20461;-64
2023/03/28 08:23:23;;;;;;;1.40;1.13;;;23.20;46.20;;;;;;5037940;28;20028;-64
2023/03/28 08:25:48;;;;;;;1.45;1.05;;;23.20;46.20;;;;;;5040690;28;20026;-63
2023/03/28 08:28:14;;;;;;;2.05;1.20;;;23.20;46.10;;;;;;5036544;28;20042;-63
2023/03/28 08:30:39;;;;;;;2.40;1.23;;;23.20;46.10;;;;;;5038708;28;20369;-64
2023/03/28 08:33:06;;;;;;;1.45;1.00;;;23.20;46.10;;;;;;5038394;28;20025;-63
2023/03/28 08:35:32;;;;;;;2.15;1.20;;;23.20;46.10;;;;;;5037740;28;20038;-64
2023/03/28 08:37:58;;;;;;;1.35;0.93;;;23.20;46.20;;;;;;5039034;28;20022;-64
2023/03/28 08:40:27;;;;;;;1.75;1.00;;;23.20;46.20;;;;;;5039971;28;20457;-64
2023/03/28 08:43:10;;;;;;;1.10;0.85;;;23.20;46.20;;;;;;5039904;28;20104;-63
2023/03/28 08:45:50;;;;;;;2.22;1.10;;;23.20;46.20;;;;;;5038635;28;20033;-63
2023/03/28 08:48:25;;;;;;;1.48;0.90;;;23.20;46.20;;;;;;5040704;28;20053;-63
2023/03/28 08:51:24;;;;;;;1.80;1.10;;;23.20;46.20;;;;;;5038785;28;20040;-63
2023/03/28 08:54:24;;;;;;;2.25;1.30;;;23.20;46.30;;;;;;5043557;28;20029;-63
2023/03/28 08:56:52;;;;;;;1.45;1.00;;;23.20;46.30;;;;;;5042335;28;20021;-63
2023/03/28 08:59:22;;;;;;;1.63;1.00;;;23.20;46.30;;;;;;5040988;28;20056;-63
2023/03/28 09:01:48;;;;;;;1.33;0.95;;;23.20;46.30;;;;;;5040741;28;20025;-63
2023/03/28 09:04:29;;;;;;;1.30;1.00;;;23.20;46.30;;;;;;5041798;28;20503;-65
2023/03/28 09:07:08;;;;;;;2.38;1.13;;;23.20;46.30;;;;;;5043349;28;20367;-62
2023/03/28 09:09:37;;;;;;;1.73;1.00;;;23.20;46.30;;;;;;5043719;28;20108;-64
2023/03/28 09:12:37;;;;;;;2.15;1.13;;;23.20;46.30;;;;;;5042249;28;20025;-64
2023/03/28 09:15:50;;;;;;;1.73;1.13;;;23.20;46.40;;;;;;5041915;28;20036;-63
2023/03/28 09:18:36;;;;;;;1.83;1.08;;;23.20;46.30;;;;;;5038768;28;20519;-64
2023/03/28 09:21:13;;;;;;;1.80;1.08;;;23.20;46.30;;;;;;5042778;28;20033;-65
2023/03/28 09:24:04;;;;;;;1.40;1.05;;;23.20;46.30;;;;;;5041507;28;20104;-64
2023/03/28 09:26:42;;;;;;;1.70;1.10;;;23.20;46.30;;;;;;5042129;28;20025;-65
2023/03/28 09:29:19;;;;;;;1.90;1.00;;;23.20;46.80;;;;;;5039239;28;20894;-64
2023/03/28 09:31:47;;;;;;;2.40;1.25;;;23.20;46.40;;;;;;5041134;28;20029;-64
2023/03/28 09:34:39;;;;;;;1.52;1.05;;;23.20;46.40;;;;;;5039386;28;20034;-64
2023/03/28 09:37:36;;;;;;;1.67;1.08;;;23.20;46.40;;;;;;5041206;28;20059;-64
2023/03/28 09:40:15;;;;;;;1.45;0.93;;;23.20;46.30;;;;;;5040980;28;20467;-64
2023/03/28 09:42:54;;;;;;;1.60;1.10;;;23.20;46.30;;;;;;5041211;28;20038;-63
2023/03/28 09:45:38;;;;;;;1.73;1.10;;;23.20;46.30;;;;;;5044496;28;20040;-63
2023/03/28 09:48:06;;;;;;;1.98;1.10;;;23.20;46.30;;;;;;5042894;28;20036;-63
2023/03/28 09:50:32;;;;;;;1.83;1.00;;;23.20;46.30;;;;;;5039630;28;20611;-63
2023/03/28 09:52:58;;;;;;;1.85;1.10;;;23.20;46.40;;;;;;5040473;28;20029;-64
2023/03/28 09:55:29;;;;;;;1.25;0.90;;;23.20;46.40;;;;;;5045069;28;20415;-64
2023/03/28 09:57:58;;;;;;;1.42;1.00;;;23.20;46.50;;;;;;5043156;28;20110;-64
2023/03/28 10:00:24;;;;;;;1.65;1.00;;;23.20;46.50;;;;;;5043660;28;20117;-64
2023/03/28 10:02:53;;;;;;;1.55;1.02;;;23.20;46.50;;;;;;5042721;28;20100;-64
2023/03/28 10:05:39;;;;;;;1.73;1.00;;;23.20;46.50;;;;;;5041477;28;20068;-65
2023/03/28 10:08:26;;;;;;;0.93;0.82;;;23.20;46.60;;;;;;5042037;28;20048;-64
2023/03/28 10:11:00;;;;;;;1.50;1.00;;;23.20;46.60;;;;;;5045658;28;20060;-64
2023/03/28 10:13:27;;;;;;;1.30;1.00;;;23.20;46.60;;;;;;5040302;28;20021;-63
2023/03/28 10:15:57;;;;;;;1.50;1.10;;;23.20;46.60;;;;;;5041507;28;20529;-65
2023/03/28 10:18:26;;;;;;;1.98;1.30;;;23.20;46.50;;;;;;5040950;28;20044;-64
2023/03/28 10:20:52;;;;;;;2.00;1.13;;;23.20;46.50;;;;;;5038469;28;20033;-63
2023/03/28 10:23:21;;;;;;;2.50;1.20;;;23.20;46.50;;;;;;5044738;28;20033;-64
2023/03/28 10:25:51;;;;;;;2.22;1.40;;;23.20;46.50;;;;;;5040617;28;20361;-64
2023/03/28 10:28:30;;;;;;;2.00;1.20;;;23.20;46.50;;;;;;5041569;28;20068;-65
2023/03/28 10:30:58;;;;;;;4.75;2.40;;;23.20;46.40;;;;;;5041236;28;20040;-64
2023/03/28 10:33:31;;;;;;;7.43;4.18;;;23.20;46.50;;;;;;5037714;28;20152;-64
2023/03/28 10:36:20;;;;;;;10.07;6.13;;;23.20;46.40;;;;;;5040948;28;20475;-64
2023/03/28 10:38:47;;;;;;;14.27;8.77;;;23.20;46.40;;;;;;5039019;28;20068;-65
2023/03/28 10:41:28;;;;;;;18.33;9.75;;;23.20;46.30;;;;;;5041035;28;20501;-64
2023/03/28 10:43:55;;;;;;;15.85;9.52;;;23.20;46.20;;;;;;5040623;28;20556;-64
2023/03/28 10:46:31;;;;;;;18.85;10.55;;;23.20;46.10;;;;;;5041508;28;20066;-63
2023/03/28 10:49:03;;;;;;;19.02;11.20;;;23.20;46.10;;;;;;5040128;28;20500;-64
2023/03/28 10:51:31;;;;;;;22.45;12.45;;;23.20;46.10;;;;;;5040754;28;20461;-65
2023/03/28 10:54:26;;;;;;;22.88;12.88;;;23.20;46.10;;;;;;5045078;28;20488;-63
2023/03/28 10:57:03;;;;;;;21.63;13.07;;;23.20;46.00;;;;;;5039499;28;20091;-63
2023/03/28 10:59:36;;;;;;;22.15;13.18;;;23.30;46.10;;;;;;5041205;28;20037;-64
2023/03/28 11:02:17;;;;;;;19.83;12.88;;;23.20;46.00;;;;;;5041170;28;20037;-64
2023/03/28 11:05:15;;;;;;;21.20;13.02;;;23.30;46.10;;;;;;5039767;28;20147;-64
2023/03/28 11:07:47;;;;;;;21.30;13.07;;;23.30;46.00;;;;;;5041237;28;20037;-64
2023/03/28 11:10:50;;;;;;;20.60;12.50;;;23.30;46.10;;;;;;5041774;28;20420;-64
2023/03/28 11:13:33;;;;;;;21.67;12.77;;;23.30;46.10;;;;;;5040579;28;20106;-63
2023/03/28 11:16:40;;;;;;;20.55;11.75;;;23.30;46.20;;;;;;5040258;28;20426;-63
2023/03/28 11:19:29;;;;;;;19.25;12.00;;;23.30;46.30;;;;;;5022985;28;20052;-63
2023/03/28 11:22:22;;;;;;;22.77;13.90;;;23.30;46.30;;;;;;5041725;28;20116;-63
2023/03/28 11:24:56;;;;;;;21.70;12.90;;;23.30;46.30;;;;;;5041438;28;20072;-63
2023/03/28 11:27:36;;;;;;;21.10;12.65;;;23.30;46.30;;;;;;5040326;28;20048;-62
2023/03/28 11:30:16;;;;;;;19.75;12.73;;;23.30;46.30;;;;;;5056239;28;20195;-64
2023/03/28 11:32:56;;;;;;;18.83;11.63;;;23.30;46.30;;;;;;5037454;28;20159;-63
2023/03/28 11:35:35;;;;;;;17.88;11.10;;;23.30;46.30;;;;;;5040088;28;20521;-63
2023/03/28 11:38:09;;;;;;;18.48;11.43;;;23.30;46.40;;;;;;5039171;28;20159;-64
2023/03/28 11:40:49;;;;;;;16.20;10.23;;;23.30;46.40;;;;;;5042294;28;20473;-64
2023/03/28 11:43:33;;;;;;;20.55;11.73;;;23.30;46.40;;;;;;5042287;28;20037;-63
2023/03/28 11:46:14;;;;;;;18.17;11.27;;;23.30;46.90;;;;;;5041172;28;20026;-63
2023/03/28 11:49:21;;;;;;;19.10;11.70;;;23.30;46.60;;;;;;5040133;28;20042;-63
2023/03/28 11:52:02;;;;;;;19.10;11.43;;;23.30;46.60;;;;;;5036099;28;20036;-62
2023/03/28 11:54:47;;;;;;;16.90;10.88;;;23.40;46.60;;;;;;5045750;28;20113;-63
2023/03/28 11:57:41;;;;;;;16.70;10.48;;;23.40;46.60;;;;;;5040991;28;20024;-64
2023/03/28 12:00:48;;;;;;;18.73;11.38;;;23.40;46.60;;;;;;5041098;28;20132;-63
2023/03/28 12:03:36;;;;;;;20.85;12.50;;;23.40;46.60;;;;;;5029992;28;20072;-64
2023/03/28 12:06:09;;;;;;;21.42;12.95;;;23.40;46.50;;;;;;5041444;28;20096;-62
2023/03/28 12:08:45;;;;;;;17.95;11.32;;;23.40;46.40;;;;;;5040172;28;20029;-62
2023/03/28 12:11:17;;;;;;;16.98;10.73;;;23.40;46.30;;;;;;5038951;28;20026;-63
2023/03/28 12:13:56;;;;;;;15.73;10.23;;;23.40;46.40;;;;;;5038124;28;20116;-62
2023/03/28 12:16:37;;;;;;;18.05;10.45;;;23.40;46.40;;;;;;5053880;28;20024;-64
2023/03/28 12:19:08;;;;;;;18.27;10.75;;;23.40;46.60;;;;;;5038058;28;20033;-63
2023/03/28 12:21:40;;;;;;;16.85;10.70;;;23.40;46.60;;;;;;5035971;28;20029;-64
2023/03/28 12:24:22;;;;;;;15.15;10.40;;;23.40;46.50;;;;;;5038599;28;20033;-64
2023/03/28 12:26:59;;;;;;;16.83;10.73;;;23.40;46.50;;;;;;5039827;28;20496;-64
2023/03/28 12:29:46;;;;;;;16.88;10.93;;;23.40;46.60;;;;;;5034130;28;20174;-64
2023/03/28 12:32:26;;;;;;;16.00;10.60;;;23.50;46.70;;;;;;5036785;28;20167;-64
2023/03/28 12:34:55;;;;;;;;;;;23.50;46.70;;;;;;5036396;28;20036;-63
2023/03/28 12:37:47;;;;;;;17.27;10.77;;;23.50;46.70;;;;;;5039967;28;19909;-63
2023/03/28 12:40:43;;;;;;;17.65;10.93;;;23.50;46.70;;;;;;5039733;28;20037;-65
2023/03/28 12:43:13;;;;;;;17.08;10.65;;;23.50;46.70;;;;;;5037130;28;20028;-63
2023/03/28 12:45:44;;;;;;;15.38;10.10;;;23.50;46.80;;;;;;5038795;28;20074;-63
2023/03/28 12:48:39;;;;;;;15.77;10.32;;;23.50;46.90;;;;;;5035665;28;20485;-65
2023/03/28 12:51:08;;;;;;;16.25;10.43;;;23.60;46.90;;;;;;5043132;28;20469;-63
2023/03/28 12:53:39;;;;;;;21.00;11.70;;;23.60;46.80;;;;;;5039507;28;20025;-65
2023/03/28 12:56:11;;;;;;;18.20;10.75;;;23.60;46.80;;;;;;5039066;28;20092;-63
2023/03/28 12:58:37;;;;;;;17.58;11.27;;;23.60;46.80;;;;;;5041337;28;20061;-62
2023/03/28 13:01:22;;;;;;;14.98;10.20;;;23.60;46.80;;;;;;5039321;28;20075;-65
2023/03/28 13:04:05;;;;;;;15.50;10.65;;;23.70;47.00;;;;;;5038023;28;20022;-63
2023/03/28 13:06:56;;;;;;;16.35;10.05;;;23.70;46.90;;;;;;5039125;28;20025;-63
2023/03/28 13:09:55;;;;;;;17.13;10.52;;;23.70;46.80;;;;;;5031920;28;21149;-64